Time;durP1;ratioP1;P1;durP2;ratioP2;P2;SDS_P1;SDS_P2;PMS_P1;PMS_P2;Temp;Humidity;BMP_temperature;BMP_pressure;BME280_temperature;BME280_humidity;BME280_pressure;Samples;Min_cycle;Max_cycle;Signal;HPM_P1;HPM_P2
2022/05/06 00:01:00;;;;;;;13.00;11.80;;;13.80;99.90;;;;;;4975580;28;20418;-49
2022/05/06 00:03:27;;;;;;;14.32;12.82;;;13.70;99.90;;;;;;4975256;28;20212;-47
2022/05/06 00:05:55;;;;;;;17.95;13.73;;;13.80;99.90;;;;;;4976072;28;20374;-48
2022/05/06 00:08:22;;;;;;;13.43;12.10;;;13.90;99.90;;;;;;4974867;28;20232;-47
2022/05/06 00:10:49;;;;;;;14.43;12.90;;;13.70;99.90;;;;;;4975400;28;20260;-50
2022/05/06 00:13:17;;;;;;;14.18;12.80;;;13.50;99.90;;;;;;4975309;28;20212;-44
2022/05/06 00:15:44;;;;;;;13.90;12.40;;;13.70;99.90;;;;;;4974830;28;20268;-47
2022/05/06 00:18:12;;;;;;;15.63;13.70;;;13.70;99.90;;;;;;4975129;28;20425;-46
2022/05/06 00:20:41;;;;;;;14.45;13.00;;;13.80;99.90;;;;;;4974654;28;20275;-44
2022/05/06 00:23:08;;;;;;;14.88;13.38;;;13.80;99.90;;;;;;4975233;28;20210;-48
2022/05/06 00:25:35;;;;;;;13.73;12.43;;;13.80;99.90;;;;;;4975239;28;20231;-48
2022/05/06 00:28:03;;;;;;;16.65;14.70;;;13.90;99.90;;;;;;4974347;28;20218;-47
2022/05/06 00:30:31;;;;;;;15.70;14.10;;;14.10;99.90;;;;;;4975049;28;20268;-47
2022/05/06 00:32:58;;;;;;;18.20;14.55;;;14.20;99.90;;;;;;4974628;28;20348;-47
2022/05/06 00:35:26;;;;;;;16.38;14.68;;;14.00;99.90;;;;;;4976285;28;20227;-46
2022/05/06 00:37:53;;;;;;;14.32;12.93;;;13.90;99.90;;;;;;4997124;28;20237;-47
2022/05/06 00:40:24;;;;;;;15.15;13.73;;;13.80;99.90;;;;;;5006413;28;20205;-47
2022/05/06 00:42:51;;;;;;;15.00;13.43;;;13.90;99.90;;;;;;5013770;28;20501;-45
2022/05/06 00:45:19;;;;;;;16.55;14.88;;;13.90;99.90;;;;;;5013195;28;20225;-50
2022/05/06 00:47:46;;;;;;;20.08;14.65;;;13.90;99.90;;;;;;5013678;28;20602;-48
2022/05/06 00:50:15;;;;;;;15.80;14.30;;;13.80;99.90;;;;;;5014079;28;20217;-49
2022/05/06 00:52:42;;;;;;;15.90;14.20;;;13.80;99.90;;;;;;5013811;28;20321;-48
2022/05/06 00:55:12;;;;;;;14.95;13.55;;;13.70;99.90;;;;;;5013526;28;20296;-46
2022/05/06 00:57:39;;;;;;;18.77;15.25;;;13.70;99.90;;;;;;5013543;28;20273;-48
2022/05/06 01:00:19;;;;;;;15.70;14.20;;;13.50;99.90;;;;;;5012931;28;20244;-49
2022/05/06 01:02:47;;;;;;;16.65;15.05;;;13.40;99.90;;;;;;5013777;28;20208;-47
2022/05/06 01:05:15;;;;;;;16.63;14.98;;;13.30;99.90;;;;;;5013471;28;20455;-47
2022/05/06 01:07:46;;;;;;;15.98;14.15;;;13.20;99.90;;;;;;5014155;28;20778;-48
2022/05/06 01:10:15;;;;;;;20.48;16.13;;;13.20;99.90;;;;;;5012784;28;20233;-47
2022/05/06 01:12:42;;;;;;;17.35;15.60;;;13.30;99.90;;;;;;5013233;28;20563;-47
2022/05/06 01:15:27;;;;;;;19.05;16.30;;;13.20;99.90;;;;;;5012941;28;20327;-49
2022/05/06 01:17:56;;;;;;;19.20;17.20;;;13.40;99.90;;;;;;5013147;28;20520;-46
2022/05/06 01:20:25;;;;;;;19.88;17.77;;;13.40;99.90;;;;;;5012206;28;20527;-47
2022/05/06 01:22:54;;;;;;;19.23;17.30;;;13.40;99.90;;;;;;5012816;28;20206;-48
2022/05/06 01:25:22;;;;;;;18.73;16.83;;;13.30;99.90;;;;;;5012848;28;20368;-45
2022/05/06 01:27:55;;;;;;;18.85;16.92;;;13.40;99.90;;;;;;5012736;28;20204;-45
2022/05/06 01:30:31;;;;;;;19.60;16.70;;;13.40;99.90;;;;;;5012527;28;20239;-47
2022/05/06 01:33:01;;;;;;;19.58;17.50;;;13.40;99.90;;;;;;5013226;28;20231;-49
2022/05/06 01:35:30;;;;;;;18.95;17.05;;;13.30;99.90;;;;;;5013334;28;20317;-51
2022/05/06 01:38:04;;;;;;;19.45;17.40;;;13.30;99.90;;;;;;5013442;28;20212;-44
2022/05/06 01:40:50;;;;;;;16.67;14.90;;;13.40;99.90;;;;;;5013249;28;20230;-46
2022/05/06 01:43:20;;;;;;;19.13;17.10;;;13.40;99.90;;;;;;5012795;28;20525;-47
2022/05/06 01:45:48;;;;;;;20.05;16.25;;;13.30;99.90;;;;;;5013264;28;20490;-46
2022/05/06 01:48:16;;;;;;;19.00;17.13;;;13.10;99.90;;;;;;5012281;28;20205;-46
2022/05/06 01:50:48;;;;;;;19.48;16.25;;;12.80;99.90;;;;;;5013416;28;20211;-48
2022/05/06 01:53:18;;;;;;;18.67;16.67;;;12.60;99.90;;;;;;5012613;28;20205;-49
2022/05/06 01:55:46;;;;;;;20.25;17.55;;;12.50;99.90;;;;;;5013000;28;20205;-51
2022/05/06 01:58:14;;;;;;;24.58;19.58;;;12.50;99.90;;;;;;5013480;28;20442;-47
2022/05/06 02:00:41;;;;;;;23.20;18.05;;;12.50;99.90;;;;;;5016425;28;20224;-48
2022/05/06 02:05:16;;;;;;;23.13;18.38;;;12.50;99.90;;;;;;5016655;28;20669;-49
2022/05/06 02:05:55;;;;;;;20.55;18.30;;;12.50;99.90;;;;;;5016663;28;20519;-50
2022/05/06 02:08:23;;;;;;;21.30;19.02;;;12.30;99.90;;;;;;5016524;28;20211;-45
2022/05/06 02:10:50;;;;;;;21.80;19.58;;;12.30;99.90;;;;;;5016519;28;20208;-48
2022/05/06 02:13:19;;;;;;;21.50;19.17;;;12.30;99.90;;;;;;5016320;28;20504;-47
2022/05/06 02:15:46;;;;;;;23.50;19.63;;;12.20;99.90;;;;;;5016284;28;20205;-44
2022/05/06 02:18:13;;;;;;;23.40;20.90;;;12.10;99.90;;;;;;5015264;28;20204;-47
2022/05/06 02:20:40;;;;;;;22.38;19.55;;;12.10;99.90;;;;;;5016013;28;20570;-45
2022/05/06 02:23:08;;;;;;;26.08;21.80;;;12.00;99.90;;;;;;5016967;28;20415;-48
2022/05/06 02:25:36;;;;;;;28.25;21.75;;;12.00;99.90;;;;;;5016474;28;20217;-45
2022/05/06 02:28:04;;;;;;;22.33;19.80;;;11.90;99.90;;;;;;5016168;28;20393;-48
2022/05/06 02:33:23;;;;;;;25.80;22.25;;;11.80;99.90;;;;;;5015625;28;20227;-43
2022/05/06 02:35:51;;;;;;;26.88;24.00;;;11.80;99.90;;;;;;5016547;28;20437;-46
2022/05/06 02:38:20;;;;;;;25.33;22.63;;;11.80;99.90;;;;;;5016132;28;20227;-46
2022/05/06 02:40:48;;;;;;;30.38;23.55;;;11.70;99.90;;;;;;5016301;28;20205;-48
2022/05/06 02:43:18;;;;;;;30.30;24.15;;;11.70;99.90;;;;;;5015244;28;20209;-47
2022/05/06 02:45:46;;;;;;;27.20;23.83;;;11.60;99.90;;;;;;5016577;28;20261;-46
2022/05/06 02:48:14;;;;;;;33.13;26.00;;;11.60;99.90;;;;;;5016097;28;20205;-51
2022/05/06 02:50:42;;;;;;;31.40;26.90;;;11.60;99.90;;;;;;5015547;28;20251;-49
2022/05/06 02:53:10;;;;;;;32.08;25.10;;;11.50;99.90;;;;;;5016103;28;20271;-47
2022/05/06 02:55:40;;;;;;;28.90;23.60;;;11.60;99.90;;;;;;5016072;28;20321;-45
2022/05/06 02:58:09;;;;;;;34.28;25.40;;;11.50;99.90;;;;;;5015906;28;20203;-45
2022/05/06 03:00:40;;;;;;;32.80;27.00;;;11.50;99.90;;;;;;5016087;28;20209;-45
2022/05/06 03:03:07;;;;;;;26.48;23.73;;;11.50;99.90;;;;;;5016090;28;20236;-46
2022/05/06 03:05:34;;;;;;;36.17;26.10;;;11.60;99.90;;;;;;5015006;28;20229;-50
2022/05/06 03:08:02;;;;;;;36.35;26.90;;;11.60;99.90;;;;;;5015815;28;20201;-46
2022/05/06 03:10:29;;;;;;;35.13;27.55;;;11.60;99.90;;;;;;5014029;28;20228;-45
2022/05/06 03:12:59;;;;;;;31.30;25.30;;;11.50;99.90;;;;;;5015475;28;20211;-46
2022/05/06 03:15:27;;;;;;;33.97;27.33;;;11.60;99.90;;;;;;5015452;28;20259;-45
2022/05/06 03:17:56;;;;;;;30.77;25.73;;;11.60;99.90;;;;;;5015549;28;20200;-47
2022/05/06 03:20:23;;;;;;;32.25;24.83;;;11.60;99.90;;;;;;5014522;28;20268;-46
2022/05/06 03:22:52;;;;;;;30.33;24.83;;;11.50;99.90;;;;;;5013670;28;20200;-47
2022/05/06 03:25:23;;;;;;;45.10;28.42;;;11.60;99.90;;;;;;5014565;28;20282;-49
2022/05/06 03:27:59;;;;;;;30.98;26.02;;;11.60;99.90;;;;;;5015046;28;20209;-47
2022/05/06 03:30:29;;;;;;;31.63;26.80;;;11.90;99.90;;;;;;5014361;28;20291;-46
2022/05/06 03:32:58;;;;;;;33.38;27.20;;;11.90;99.90;;;;;;5014469;28;20520;-46
2022/05/06 03:35:27;;;;;;;29.83;24.92;;;12.00;99.90;;;;;;5014422;28;20224;-49
2022/05/06 03:37:56;;;;;;;33.03;26.10;;;11.90;99.90;;;;;;5015351;28;20204;-49
2022/05/06 03:40:24;;;;;;;35.13;25.75;;;11.90;99.90;;;;;;5014755;28;20399;-48
2022/05/06 03:42:51;;;;;;;31.70;26.50;;;11.80;99.90;;;;;;5014476;28;20308;-49
2022/05/06 03:45:18;;;;;;;31.33;25.75;;;12.00;99.90;;;;;;5015238;28;20559;-47
2022/05/06 03:47:46;;;;;;;28.92;24.20;;;12.10;99.90;;;;;;5015636;28;20240;-45
2022/05/06 03:52:59;;;;;;;29.13;25.20;;;12.20;99.90;;;;;;5015127;28;20204;-45
2022/05/06 03:55:27;;;;;;;29.25;26.13;;;12.10;99.90;;;;;;5014854;28;20228;-46
2022/05/06 03:57:54;;;;;;;28.17;25.17;;;12.10;99.90;;;;;;5014354;28;20219;-50
2022/05/06 04:00:26;;;;;;;29.73;26.45;;;12.20;99.90;;;;;;5007974;28;20209;-50
2022/05/06 04:02:54;;;;;;;29.27;25.13;;;12.10;99.90;;;;;;4998574;28;20389;-46
2022/05/06 04:05:21;;;;;;;25.88;23.13;;;12.10;99.90;;;;;;5013755;28;20603;-45
2022/05/06 04:07:48;;;;;;;28.73;24.60;;;12.40;99.90;;;;;;5013831;28;20235;-47
2022/05/06 04:10:15;;;;;;;28.60;23.20;;;12.50;99.90;;;;;;5006044;28;20227;-46
2022/05/06 04:12:43;;;;;;;24.38;21.73;;;12.70;99.90;;;;;;5014270;28;20205;-53
2022/05/06 04:15:10;;;;;;;26.42;22.90;;;12.70;99.90;;;;;;5014103;28;20239;-48
2022/05/06 04:17:37;;;;;;;30.00;22.50;;;12.70;99.90;;;;;;5014527;28;20279;-48
2022/05/06 04:25:38;;;;;;;25.08;21.98;;;12.80;99.90;;;;;;4996385;28;20236;-46
2022/05/06 04:28:06;;;;;;;23.35;20.33;;;12.90;99.90;;;;;;4995316;28;20314;-45
2022/05/06 04:30:34;;;;;;;25.35;22.60;;;13.00;99.90;;;;;;4993488;28;20603;-48
2022/05/06 04:33:01;;;;;;;26.45;21.58;;;13.00;99.90;;;;;;4993798;28;20205;-46
2022/05/06 04:35:29;;;;;;;24.00;20.65;;;13.00;99.90;;;;;;4994249;28;20301;-50
2022/05/06 04:37:56;;;;;;;22.60;20.25;;;13.20;99.90;;;;;;4994091;28;20377;-45
2022/05/06 04:40:24;;;;;;;23.38;19.63;;;13.20;99.90;;;;;;4994195;28;20284;-46
2022/05/06 04:42:51;;;;;;;25.27;20.92;;;13.20;99.90;;;;;;4994282;28;20550;-50
2022/05/06 04:45:19;;;;;;;18.75;16.75;;;13.40;99.90;;;;;;4993714;28;20280;-47
2022/05/06 04:47:46;;;;;;;25.42;19.33;;;13.30;99.90;;;;;;4994296;28;20235;-49
2022/05/06 04:50:14;;;;;;;23.80;19.85;;;13.40;99.90;;;;;;4993973;28;20243;-49
2022/05/06 04:52:41;;;;;;;20.75;18.38;;;13.40;99.90;;;;;;4994171;28;20490;-49
2022/05/06 04:55:14;;;;;;;20.23;18.30;;;13.40;99.90;;;;;;4994087;28;20303;-50
2022/05/06 04:57:41;;;;;;;22.35;18.17;;;13.50;99.90;;;;;;4987721;28;20212;-44
2022/05/06 05:00:09;;;;;;;18.88;16.88;;;13.60;99.90;;;;;;4980668;28;20210;-45
2022/05/06 05:02:37;;;;;;;20.45;18.35;;;13.60;99.90;;;;;;4990221;28;20209;-49
2022/05/06 05:05:05;;;;;;;20.08;17.98;;;13.80;99.90;;;;;;4992751;28;20230;-48
2022/05/06 05:07:32;;;;;;;24.55;19.13;;;14.00;99.90;;;;;;4974983;28;20210;-45
2022/05/06 05:09:59;;;;;;;20.15;17.35;;;14.50;99.90;;;;;;4990550;28;20320;-49
2022/05/06 05:12:27;;;;;;;19.95;17.08;;;14.90;99.90;;;;;;4997673;28;20256;-50
2022/05/06 05:14:54;;;;;;;18.23;14.90;;;15.20;99.90;;;;;;5004616;28;20230;-48
2022/05/06 05:17:21;;;;;;;17.38;15.63;;;15.30;99.90;;;;;;5003726;28;20522;-48
2022/05/06 05:19:49;;;;;;;18.90;16.05;;;15.20;99.90;;;;;;5005267;28;20194;-50
2022/05/06 05:22:18;;;;;;;20.63;14.90;;;15.40;99.90;;;;;;5013587;28;20551;-47
2022/05/06 05:24:46;;;;;;;14.30;12.87;;;15.50;99.90;;;;;;5013481;28;20466;-47
2022/05/06 05:27:14;;;;;;;15.50;13.90;;;15.30;99.90;;;;;;5005131;28;20465;-50
2022/05/06 05:29:42;;;;;;;17.23;15.57;;;15.40;99.90;;;;;;5008479;28;20223;-46
2022/05/06 05:32:10;;;;;;;19.80;14.77;;;15.40;99.90;;;;;;5013951;28;20482;-49
2022/05/06 05:34:37;;;;;;;21.13;15.13;;;15.40;99.90;;;;;;5017382;28;20226;-50
2022/05/06 05:37:09;;;;;;;17.37;14.50;;;15.30;99.90;;;;;;5017609;28;20390;-44
2022/05/06 05:39:36;;;;;;;18.85;13.55;;;15.20;99.90;;;;;;5017124;28;20783;-47
2022/05/06 05:42:04;;;;;;;14.15;12.02;;;15.20;99.90;;;;;;5017090;28;20214;-50
2022/05/06 05:50:06;;;;;;;16.25;11.95;;;14.90;99.90;;;;;;5016514;28;20239;-49
2022/05/06 05:52:34;;;;;;;13.60;11.77;;;14.90;99.90;;;;;;5017067;28;20206;-47
2022/05/06 05:55:01;;;;;;;11.90;10.70;;;14.80;99.90;;;;;;5017019;28;20560;-46
2022/05/06 05:57:28;;;;;;;12.60;10.63;;;14.70;99.90;;;;;;5017190;28;20511;-48
2022/05/06 05:59:55;;;;;;;15.30;12.55;;;14.70;99.90;;;;;;5021565;23;20238;-48
2022/05/06 06:02:23;;;;;;;12.48;11.07;;;14.80;99.90;;;;;;4994828;28;20414;-49
2022/05/06 06:04:51;;;;;;;11.45;9.27;;;14.80;99.90;;;;;;4996130;28;20206;-49
2022/05/06 06:07:18;;;;;;;10.32;9.25;;;14.80;99.90;;;;;;4987878;28;20561;-50
2022/05/06 06:09:45;;;;;;;12.70;9.23;;;14.80;99.90;;;;;;4996571;28;20238;-48
2022/05/06 06:12:13;;;;;;;10.80;9.10;;;15.00;99.90;;;;;;4977756;28;20720;-45
2022/05/06 06:14:40;;;;;;;10.23;8.53;;;15.20;99.90;;;;;;4962649;28;20286;-49
2022/05/06 06:17:08;;;;;;;9.32;8.40;;;15.40;99.90;;;;;;4967643;28;20501;-48
2022/05/06 06:19:36;;;;;;;10.73;9.73;;;15.40;99.90;;;;;;4977795;28;20263;-51
2022/05/06 06:22:03;;;;;;;9.90;8.47;;;15.50;99.90;;;;;;4977824;28;20289;-50
2022/05/06 06:24:31;;;;;;;9.37;8.23;;;15.90;99.90;;;;;;4977374;28;20453;-51
2022/05/06 06:26:58;;;;;;;9.63;8.73;;;15.90;99.90;;;;;;4976601;28;20713;-50
2022/05/06 06:29:26;;;;;;;10.27;9.27;;;16.10;99.90;;;;;;4976900;28;20735;-53
2022/05/06 06:31:53;;;;;;;10.97;9.13;;;16.10;99.90;;;;;;4957318;28;20522;-51
2022/05/06 06:34:20;;;;;;;10.40;9.27;;;16.10;99.90;;;;;;4964705;28;20493;-49
2022/05/06 06:36:47;;;;;;;13.07;8.93;;;15.90;99.90;;;;;;4971441;28;20509;-55
2022/05/06 06:39:15;;;;;;;10.10;9.13;;;16.00;99.90;;;;;;4976130;28;20468;-48
2022/05/06 06:41:42;;;;;;;8.10;7.30;;;16.30;99.90;;;;;;4966363;28;20528;-47
2022/05/06 06:44:09;;;;;;;9.90;8.60;;;16.60;99.90;;;;;;4955780;28;20423;-50
2022/05/06 06:46:36;;;;;;;10.73;9.73;;;16.50;99.90;;;;;;4969569;28;20682;-49
2022/05/06 06:49:05;;;;;;;11.10;8.37;;;16.60;99.90;;;;;;4976090;28;20699;-50
2022/05/06 06:51:33;;;;;;;9.00;8.17;;;16.60;99.90;;;;;;4975473;28;20491;-51
2022/05/06 06:54:00;;;;;;;12.23;9.40;;;16.60;99.90;;;;;;4975467;28;20440;-44
2022/05/06 06:56:27;;;;;;;12.83;8.47;;;16.80;99.90;;;;;;4976405;28;20493;-44
2022/05/06 06:58:54;;;;;;;9.83;8.93;;;17.10;99.90;;;;;;4976222;28;20765;-47
2022/05/06 07:01:21;;;;;;;8.07;7.10;;;17.20;99.90;;;;;;4975389;28;20811;-47
2022/05/06 07:03:48;;;;;;;8.23;7.33;;;16.90;99.90;;;;;;4975690;28;20757;-49
2022/05/06 07:11:53;;;;;;;9.63;8.63;;;16.90;99.90;;;;;;4975179;28;20506;-49
2022/05/06 07:14:21;;;;;;;9.40;8.50;;;16.80;99.90;;;;;;4975026;28;20483;-50
2022/05/06 07:16:50;;;;;;;10.53;8.73;;;16.60;99.90;;;;;;4975213;28;20446;-47
2022/05/06 07:19:17;;;;;;;8.93;6.70;;;16.40;99.90;;;;;;4975806;28;20440;-49
2022/05/06 07:21:44;;;;;;;7.73;7.03;;;16.40;99.90;;;;;;4974961;28;20470;-48
2022/05/06 07:24:12;;;;;;;11.33;7.90;;;16.50;99.90;;;;;;4975489;28;20605;-50
2022/05/06 07:26:40;;;;;;;6.87;6.20;;;16.50;99.90;;;;;;4975212;28;20490;-49
2022/05/06 07:29:07;;;;;;;7.57;6.70;;;16.90;99.90;;;;;;4975782;28;20511;-48
2022/05/06 07:31:34;;;;;;;7.93;5.73;;;17.30;99.90;;;;;;4974395;28;20550;-45
2022/05/06 07:34:01;;;;;;;7.77;5.60;;;17.30;99.90;;;;;;4975354;28;20466;-52
2022/05/06 07:36:28;;;;;;;8.60;6.20;;;17.00;99.90;;;;;;4974859;28;20439;-51
2022/05/06 07:38:55;;;;;;;7.10;6.40;;;16.90;99.90;;;;;;4975467;28;20413;-52
2022/05/06 07:41:23;;;;;;;6.30;5.17;;;17.20;99.90;;;;;;4974495;28;20439;-49
2022/05/06 07:43:50;;;;;;;5.13;4.63;;;17.10;99.90;;;;;;4974553;28;20667;-51
2022/05/06 07:46:17;;;;;;;8.70;5.47;;;17.20;99.90;;;;;;4975622;28;20489;-49
2022/05/06 07:48:45;;;;;;;6.37;4.60;;;17.40;99.90;;;;;;4975019;28;20607;-48
2022/05/06 07:51:13;;;;;;;5.37;4.47;;;17.50;99.90;;;;;;4974654;28;20509;-49
2022/05/06 07:53:40;;;;;;;7.30;5.33;;;17.70;99.90;;;;;;4975168;28;20782;-49
2022/05/06 07:56:08;;;;;;;5.17;4.77;;;18.20;99.90;;;;;;4974627;28;20796;-48
2022/05/06 07:58:38;;;;;;;8.20;5.10;;;19.40;99.90;;;;;;4974199;28;20414;-49
2022/05/06 08:01:06;;;;;;;5.17;4.77;;;20.20;99.90;;;;;;4974761;28;20476;-53
2022/05/06 08:06:19;;;;;;;6.80;4.90;;;21.20;99.90;;;;;;4974851;28;20444;-48
2022/05/06 08:08:46;;;;;;;5.10;4.60;;;21.60;99.90;;;;;;4975456;28;20414;-47
2022/05/06 08:11:13;;;;;;;9.07;5.77;;;21.10;99.90;;;;;;4975088;28;20531;-50
2022/05/06 08:13:41;;;;;;;5.37;4.87;;;20.20;99.90;;;;;;4974294;28;20440;-47
2022/05/06 08:16:09;;;;;;;6.07;4.30;;;20.40;99.90;;;;;;4975409;28;20726;-49
2022/05/06 08:18:37;;;;;;;6.90;4.03;;;21.60;99.90;;;;;;4965058;28;21132;-47
2022/05/06 08:21:04;;;;;;;4.93;4.53;;;22.00;99.90;;;;;;4962451;28;20466;-51
2022/05/06 08:23:32;;;;;;;4.27;3.97;;;22.80;98.80;;;;;;4955160;28;20454;-50
2022/05/06 08:26:00;;;;;;;5.97;3.90;;;23.10;96.00;;;;;;4955355;28;20449;-52
2022/05/06 08:28:29;;;;;;;3.90;3.60;;;23.20;94.80;;;;;;4965234;28;20440;-51
2022/05/06 08:30:57;;;;;;;5.13;4.53;;;22.90;95.60;;;;;;4972944;28;20517;-52
2022/05/06 08:33:26;;;;;;;6.60;3.90;;;23.20;94.80;;;;;;4972887;28;20499;-54
2022/05/06 08:35:54;;;;;;;7.83;4.47;;;24.00;92.60;;;;;;4964922;28;20424;-49
2022/05/06 08:38:23;;;;;;;5.27;4.80;;;25.20;90.10;;;;;;4965611;28;20447;-48
2022/05/06 08:40:50;;;;;;;5.23;4.73;;;25.00;86.90;;;;;;4973432;28;20549;-46
2022/05/06 08:43:18;;;;;;;6.40;4.37;;;24.20;88.20;;;;;;4973214;28;20532;-50
2022/05/06 08:51:33;;;;;;;6.30;4.23;;;23.00;92.00;;;;;;4972609;28;20858;-47
2022/05/06 08:54:04;;;;;;;3.90;3.20;;;23.30;91.10;;;;;;4973062;28;20719;-53
2022/05/06 08:56:32;;;;;;;5.80;4.37;;;23.70;90.60;;;;;;4973509;28;20448;-53
2022/05/06 08:58:59;;;;;;;4.47;4.07;;;24.80;87.90;;;;;;4974025;28;20440;-54
2022/05/06 09:01:26;;;;;;;6.63;4.03;;;26.60;83.50;;;;;;4973560;28;20850;-47
2022/05/06 09:03:55;;;;;;;5.80;4.27;;;27.70;76.90;;;;;;4973557;28;20433;-49
2022/05/06 09:06:26;;;;;;;3.87;3.13;;;27.10;72.50;;;;;;4973961;28;20448;-50
2022/05/06 09:08:56;;;;;;;7.20;4.00;;;26.20;75.80;;;;;;4976019;28;20440;-51
2022/05/06 09:14:16;;;;;;;4.83;4.40;;;27.00;74.10;;;;;;4964414;28;20619;-50
2022/05/06 09:16:44;;;;;;;4.67;4.20;;;25.30;76.10;;;;;;4977829;28;20470;-49
2022/05/06 09:19:25;;;;;;;4.20;3.87;;;24.80;76.60;;;;;;4977860;28;20649;-51
2022/05/06 09:22:03;;;;;;;4.20;3.90;;;25.80;77.40;;;;;;4977882;28;20549;-52
2022/05/06 09:24:32;;;;;;;4.83;4.40;;;26.10;74.70;;;;;;4977041;28;20442;-53
2022/05/06 09:27:03;;;;;;;7.83;3.40;;;25.50;74.50;;;;;;4977747;28;20642;-47
2022/05/06 09:29:44;;;;;;;5.17;4.67;;;24.00;79.80;;;;;;4977049;28;20472;-49
2022/05/06 09:32:16;;;;;;;5.60;4.10;;;23.40;83.00;;;;;;4977237;28;20494;-49
2022/05/06 09:34:48;;;;;;;4.37;3.93;;;22.80;82.70;;;;;;4977513;28;20432;-50
2022/05/06 09:37:32;;;;;;;3.97;3.23;;;22.30;86.20;;;;;;4977221;28;20643;-52
2022/05/06 09:40:04;;;;;;;4.73;3.60;;;22.50;87.10;;;;;;4977173;28;20432;-51
2022/05/06 09:42:32;;;;;;;3.90;3.53;;;21.70;86.70;;;;;;4977041;28;20436;-52
2022/05/06 09:45:03;;;;;;;5.53;3.70;;;20.80;88.80;;;;;;4976230;28;20443;-51
2022/05/06 09:47:35;;;;;;;8.63;2.93;;;20.50;90.40;;;;;;4977108;28;20489;-54
2022/05/06 09:50:05;;;;;;;6.70;3.20;;;20.20;87.40;;;;;;4977164;28;20476;-49
2022/05/06 09:52:33;;;;;;;3.60;2.40;;;19.90;91.20;;;;;;4977118;28;20492;-51
2022/05/06 09:55:02;;;;;;;4.97;3.80;;;20.10;91.20;;;;;;4977021;28;20424;-53
2022/05/06 09:57:32;;;;;;;5.13;3.67;;;20.10;92.00;;;;;;4977272;28;20446;-48
2022/05/06 09:59:59;;;;;;;3.20;3.00;;;20.40;90.90;;;;;;4976854;28;20442;-49
2022/05/06 10:02:29;;;;;;;4.93;3.87;;;19.80;91.50;;;;;;4976793;28;20477;-48
2022/05/06 10:04:57;;;;;;;3.27;2.90;;;19.50;92.90;;;;;;4976667;28;20499;-49
2022/05/06 10:07:25;;;;;;;2.90;2.70;;;19.70;92.50;;;;;;4976802;28;20486;-51
2022/05/06 10:10:01;;;;;;;3.57;3.20;;;20.10;92.40;;;;;;4976390;28;20421;-50
2022/05/06 10:12:39;;;;;;;6.70;4.23;;;20.30;92.20;;;;;;4975725;28;20538;-49
2022/05/06 10:15:08;;;;;;;5.70;3.40;;;20.60;91.50;;;;;;4976436;28;20443;-51
2022/05/06 10:17:48;;;;;;;4.00;3.70;;;20.30;91.80;;;;;;4975984;28;20599;-48
2022/05/06 10:20:37;;;;;;;3.03;2.73;;;19.90;91.20;;;;;;4976095;28;20573;-51
2022/05/06 10:23:06;;;;;;;3.27;2.90;;;19.80;91.10;;;;;;4976106;28;20490;-49
2022/05/06 10:25:48;;;;;;;3.43;2.70;;;19.70;91.90;;;;;;4976601;28;20451;-51
2022/05/06 10:34:18;;;;;;;5.23;3.03;;;19.90;91.80;;;;;;4976282;28;20734;-47
2022/05/06 10:36:53;;;;;;;4.00;3.03;;;19.70;92.60;;;;;;4976260;28;20418;-46
2022/05/06 10:39:37;;;;;;;3.70;2.40;;;19.90;93.00;;;;;;4976042;28;20516;-50
2022/05/06 10:42:20;;;;;;;4.50;3.33;;;20.10;92.10;;;;;;4975487;28;20457;-52
2022/05/06 10:44:49;;;;;;;2.50;2.30;;;20.20;91.90;;;;;;4975423;28;20408;-48
2022/05/06 10:47:16;;;;;;;5.63;3.10;;;19.60;92.30;;;;;;4975496;28;20548;-48
2022/05/06 10:49:46;;;;;;;4.57;3.47;;;19.50;92.90;;;;;;4975778;28;20511;-46
2022/05/06 10:52:20;;;;;;;2.80;2.60;;;19.70;94.00;;;;;;4975983;28;20711;-47
2022/05/06 10:54:48;;;;;;;3.90;3.50;;;19.90;92.50;;;;;;4976031;28;20448;-48
2022/05/06 10:57:23;;;;;;;2.73;2.53;;;19.90;93.20;;;;;;4974988;28;20468;-52
2022/05/06 11:00:05;;;;;;;3.50;3.20;;;19.80;92.90;;;;;;4975385;28;20433;-52
2022/05/06 11:02:35;;;;;;;3.17;2.03;;;19.60;93.40;;;;;;4975560;28;20555;-49
2022/05/06 11:05:07;;;;;;;3.00;2.70;;;19.70;93.60;;;;;;4975998;28;20498;-49
2022/05/06 11:07:37;;;;;;;4.00;2.97;;;19.80;93.80;;;;;;4975849;28;20771;-49
2022/05/06 11:10:16;;;;;;;3.80;3.50;;;19.90;93.30;;;;;;4975380;28;20837;-44
2022/05/06 11:12:48;;;;;;;2.43;2.13;;;19.70;93.80;;;;;;4975742;28;20454;-48
2022/05/06 11:15:18;;;;;;;3.33;2.00;;;19.80;93.00;;;;;;4975057;28;20411;-49
2022/05/06 11:17:46;;;;;;;5.00;3.00;;;20.00;93.60;;;;;;4975369;28;20665;-47
2022/05/06 11:20:17;;;;;;;10.47;3.43;;;20.20;93.60;;;;;;4975585;28;20468;-53
2022/05/06 11:22:52;;;;;;;4.60;3.97;;;20.00;93.60;;;;;;4975127;28;20468;-50
2022/05/06 11:25:24;;;;;;;3.43;3.20;;;20.20;93.70;;;;;;4974635;28;20574;-49
2022/05/06 11:27:56;;;;;;;3.10;2.90;;;20.70;93.10;;;;;;4976085;28;20499;-49
2022/05/06 11:30:25;;;;;;;3.17;2.70;;;21.10;92.30;;;;;;4975153;28;20461;-55
2022/05/06 11:33:03;;;;;;;4.60;3.40;;;20.90;91.40;;;;;;4975786;28;20492;-51
2022/05/06 11:35:48;;;;;;;3.63;2.70;;;20.90;91.40;;;;;;4975793;28;20404;-49
2022/05/06 11:38:34;;;;;;;2.90;2.60;;;20.90;91.40;;;;;;4975440;28;20518;-48
2022/05/06 11:41:11;;;;;;;6.10;3.33;;;21.50;91.60;;;;;;4975119;28;20518;-49
2022/05/06 11:43:41;;;;;;;8.30;3.60;;;22.00;90.60;;;;;;4974151;28;20477;-51
2022/05/06 11:49:06;;;;;;;3.03;2.70;;;22.40;88.70;;;;;;4975997;28;20743;-48
2022/05/06 11:51:41;;;;;;;3.97;2.57;;;21.80;88.10;;;;;;4974997;28;20812;-52
2022/05/06 11:54:09;;;;;;;3.43;3.13;;;21.10;90.80;;;;;;4975624;28;20464;-52
2022/05/06 11:56:38;;;;;;;2.57;2.37;;;21.00;90.90;;;;;;4975558;28;20418;-47
2022/05/06 11:59:07;;;;;;;2.97;2.63;;;20.70;91.00;;;;;;4975807;28;20731;-49
2022/05/06 12:01:35;;;;;;;2.40;2.20;;;20.50;91.00;;;;;;4995957;23;20464;-52
2022/05/06 12:04:05;;;;;;;5.90;3.27;;;20.60;92.00;;;;;;4974895;28;20416;-55
2022/05/06 12:06:48;;;;;;;4.50;2.90;;;21.10;91.10;;;;;;4974259;28;20798;-50
2022/05/06 12:09:24;;;;;;;4.03;2.60;;;21.50;90.10;;;;;;4975275;28;20840;-50
2022/05/06 12:12:07;;;;;;;2.50;2.30;;;21.80;90.10;;;;;;4974469;28;20676;-55
2022/05/06 12:14:35;;;;;;;3.43;2.93;;;21.70;88.90;;;;;;4973491;28;20445;-54
2022/05/06 12:17:05;;;;;;;4.63;3.00;;;21.90;89.80;;;;;;4974713;28;20497;-51
2022/05/06 12:19:39;;;;;;;3.37;2.57;;;22.20;88.30;;;;;;4974608;28;20414;-52
2022/05/06 12:22:09;;;;;;;3.60;2.97;;;21.80;88.20;;;;;;4974892;28;20503;-55
2022/05/06 12:24:50;;;;;;;3.80;2.67;;;22.00;89.30;;;;;;4975269;28;20836;-53
2022/05/06 12:27:29;;;;;;;3.33;3.03;;;22.10;90.10;;;;;;4974190;28;20523;-52
2022/05/06 12:30:00;;;;;;;8.73;3.87;;;22.60;88.80;;;;;;4974936;28;20783;-51
2022/05/06 12:32:28;;;;;;;5.20;2.50;;;23.00;86.60;;;;;;4974379;28;20521;-53
2022/05/06 12:35:10;;;;;;;2.73;2.53;;;23.10;86.80;;;;;;4974210;28;20411;-53
2022/05/06 12:37:56;;;;;;;3.20;2.90;;;23.50;84.40;;;;;;4974103;28;20460;-55
2022/05/06 12:40:34;;;;;;;3.97;2.97;;;23.60;83.50;;;;;;4974453;28;20436;-54
2022/05/06 12:43:10;;;;;;;3.33;2.70;;;23.90;82.40;;;;;;4973730;28;20448;-49
2022/05/06 12:45:50;;;;;;;2.60;2.17;;;23.80;82.30;;;;;;4974301;28;20539;-54
2022/05/06 12:51:11;;;;;;;6.30;3.07;;;24.40;81.30;;;;;;4965858;28;20442;-53
2022/05/06 12:53:38;;;;;;;3.80;3.47;;;24.10;80.20;;;;;;4973792;28;20447;-50
2022/05/06 12:56:16;;;;;;;3.20;2.90;;;24.00;81.60;;;;;;4975256;28;20446;-53
2022/05/06 12:58:43;;;;;;;3.43;2.87;;;23.90;81.20;;;;;;4975077;28;20460;-49
2022/05/06 13:01:13;;;;;;;7.60;4.27;;;24.10;80.80;;;;;;4974192;28;20443;-54
2022/05/06 13:03:42;;;;;;;3.67;3.30;;;23.90;80.80;;;;;;4973749;28;20415;-54
2022/05/06 13:06:10;;;;;;;9.10;3.43;;;23.90;80.00;;;;;;4974413;28;20523;-51
2022/05/06 13:08:37;;;;;;;6.93;3.67;;;24.10;80.10;;;;;;4974613;28;20478;-51
2022/05/06 13:11:04;;;;;;;3.57;3.27;;;24.20;80.20;;;;;;4973936;28;20654;-50
2022/05/06 13:13:36;;;;;;;5.00;3.60;;;24.20;80.90;;;;;;4973944;28;20440;-53
2022/05/06 13:16:04;;;;;;;3.70;3.30;;;24.00;78.60;;;;;;4956100;28;20541;-52
2022/05/06 13:18:31;;;;;;;5.93;3.30;;;23.10;79.90;;;;;;4960460;28;20440;-51
2022/05/06 13:20:58;;;;;;;12.70;3.43;;;22.40;82.90;;;;;;4957080;28;20432;-51
2022/05/06 13:23:25;;;;;;;3.37;2.90;;;22.10;84.40;;;;;;4954611;28;20443;-53
2022/05/06 13:25:53;;;;;;;3.47;2.97;;;22.20;84.90;;;;;;4954823;28;20672;-52
2022/05/06 13:28:20;;;;;;;4.37;3.20;;;22.30;83.30;;;;;;4955864;28;20451;-54
2022/05/06 13:30:48;;;;;;;3.03;2.73;;;22.40;83.60;;;;;;4961834;28;20861;-48
2022/05/06 13:33:15;;;;;;;8.80;7.00;;;22.30;83.80;;;;;;4968822;28;20484;-51
2022/05/06 13:35:43;;;;;;;3.60;3.03;;;22.50;83.70;;;;;;4973715;28;20439;-52